createdAt,value
2019-01-22T00:00:15.745Z,103.10
2019-01-22T00:01:15.768Z,107.90
2019-01-22T00:02:15.787Z,105.30
2019-01-22T00:03:15.807Z,104.70
2019-01-22T00:04:15.829Z,110.90
2019-01-22T00:05:15.848Z,119.60
2019-01-22T00:06:15.871Z,111.40
2019-01-22T00:07:15.891Z,108.40
2019-01-22T00:08:15.913Z,111.00
2019-01-22T00:09:15.932Z,112.30
2019-01-22T00:10:15.954Z,112.90
2019-01-22T00:11:15.972Z,118.40
2019-01-22T00:12:15.994Z,109.10
2019-01-22T00:13:16.016Z,105.30
2019-01-22T00:14:16.036Z,108.60
2019-01-22T00:15:16.060Z,111.50
2019-01-22T00:16:16.077Z,112.00
2019-01-22T00:17:16.102Z,115.70
2019-01-22T00:18:16.119Z,117.20
2019-01-22T00:19:16.142Z,117.00
2019-01-22T00:20:16.161Z,117.30
2019-01-22T00:21:16.184Z,109.70
2019-01-22T00:22:16.203Z,99.90
2019-01-22T00:23:16.227Z,107.00
2019-01-22T00:24:16.246Z,112.70
2019-01-22T00:25:16.267Z,119.20
2019-01-22T00:26:16.286Z,120.00
2019-01-22T00:27:16.307Z,117.20
2019-01-22T00:28:16.330Z,113.70
2019-01-22T00:29:16.400Z,100.60
2019-01-22T00:30:16.371Z,105.70
2019-01-22T00:31:16.391Z,114.40
2019-01-22T00:32:16.411Z,110.00
2019-01-22T00:33:16.433Z,122.50
2019-01-22T00:34:16.454Z,116.80
2019-01-22T00:35:16.477Z,114.90
2019-01-22T00:36:16.498Z,126.00
2019-01-22T00:37:16.517Z,116.40
2019-01-22T00:38:16.541Z,121.70
2019-01-22T00:39:16.559Z,119.00
2019-01-22T00:40:16.583Z,122.20
2019-01-22T00:41:16.603Z,127.20
2019-01-22T00:42:16.624Z,129.80
2019-01-22T00:43:16.644Z,132.10
2019-01-22T00:44:16.668Z,127.70
2019-01-22T00:45:16.687Z,131.80
2019-01-22T00:46:16.709Z,129.10
2019-01-22T00:47:16.732Z,127.60
2019-01-22T00:48:16.750Z,133.50
2019-01-22T00:49:16.774Z,123.60
2019-01-22T00:50:16.794Z,104.90
2019-01-22T00:51:16.814Z,108.60
2019-01-22T00:52:16.836Z,114.70
2019-01-22T00:53:16.859Z,121.70
2019-01-22T00:54:16.878Z,118.50
2019-01-22T00:55:16.900Z,126.30
2019-01-22T00:56:16.922Z,123.90
2019-01-22T00:57:16.943Z,129.20
2019-01-22T00:58:16.966Z,143.30
2019-01-22T00:59:16.986Z,140.40
2019-01-22T01:00:17.007Z,142.00
2019-01-22T01:01:17.029Z,144.10
2019-01-22T01:02:17.052Z,142.50
2019-01-22T01:03:17.072Z,131.00
2019-01-22T01:04:17.093Z,116.40
2019-01-22T01:05:17.115Z,124.00
2019-01-22T01:06:17.139Z,132.60
2019-01-22T01:07:17.158Z,126.40
2019-01-22T01:08:17.180Z,131.00
2019-01-22T01:09:17.205Z,137.80
2019-01-22T01:10:17.223Z,148.10
2019-01-22T01:11:17.245Z,144.80
2019-01-22T01:12:17.267Z,134.60
2019-01-22T01:13:17.288Z,130.50
2019-01-22T01:14:17.309Z,130.70
2019-01-22T01:15:17.331Z,133.80
2019-01-22T01:16:17.352Z,125.80
2019-01-22T01:17:17.376Z,134.20
2019-01-22T01:18:17.399Z,127.10
2019-01-22T01:19:17.417Z,131.90
2019-01-22T01:20:17.440Z,133.90
2019-01-22T01:21:17.506Z,125.90
2019-01-22T01:22:17.743Z,135.50
2019-01-22T01:23:17.506Z,127.60
2019-01-22T01:24:17.527Z,124.40
2019-01-22T01:25:17.549Z,129.70
2019-01-22T01:26:17.574Z,127.40
2019-01-22T01:27:17.592Z,120.10
2019-01-22T01:28:17.614Z,121.20
2019-01-22T01:29:17.637Z,116.50
2019-01-22T01:30:17.659Z,122.40
2019-01-22T01:31:17.680Z,138.40
2019-01-22T01:32:17.705Z,134.60
2019-01-22T01:33:17.724Z,174.50
2019-01-22T01:34:17.747Z,167.40
2019-01-22T01:35:17.768Z,156.70
2019-01-22T01:36:17.795Z,140.10
2019-01-22T01:37:17.811Z,137.80
2019-01-22T01:38:17.834Z,121.10
2019-01-22T01:39:17.854Z,123.90
2019-01-22T01:40:17.877Z,121.70
2019-01-22T01:41:17.898Z,118.20
2019-01-22T01:42:17.921Z,112.00
2019-01-22T01:43:17.943Z,111.90
2019-01-22T01:44:17.970Z,108.30
2019-01-22T01:45:17.986Z,112.50
2019-01-22T01:46:18.008Z,102.30
2019-01-22T01:47:18.029Z,110.20
2019-01-22T01:48:18.051Z,116.50
2019-01-22T01:49:18.072Z,105.50
2019-01-22T01:50:18.094Z,112.50
2019-01-22T01:51:18.117Z,112.70
2019-01-22T01:52:18.139Z,109.40
2019-01-22T01:53:23.831Z,118.30
2019-01-22T01:54:18.184Z,113.60
2019-01-22T01:55:18.204Z,109.50
2019-01-22T01:56:18.225Z,101.70
2019-01-22T01:57:18.247Z,116.40
2019-01-22T01:58:18.273Z,108.10
2019-01-22T01:59:18.293Z,107.10
2019-01-22T02:00:18.313Z,110.20
2019-01-22T02:01:18.336Z,105.50
2019-01-22T02:02:18.357Z,114.40
2019-01-22T02:03:18.382Z,104.60
2019-01-22T02:04:18.402Z,109.80
2019-01-22T02:05:18.426Z,110.20
2019-01-22T02:06:18.446Z,114.20
2019-01-22T02:07:18.467Z,107.40
2019-01-22T02:08:18.490Z,116.20
2019-01-22T02:09:18.512Z,109.30
2019-01-22T02:10:18.534Z,114.60
2019-01-22T02:11:18.556Z,110.40
2019-01-22T02:12:18.577Z,107.80
2019-01-22T02:13:18.600Z,105.60
2019-01-22T02:14:18.622Z,106.20
2019-01-22T02:15:18.643Z,104.60
2019-01-22T02:16:18.667Z,103.60
2019-01-22T02:17:18.688Z,103.90
2019-01-22T02:18:18.711Z,103.60
2019-01-22T02:19:18.731Z,100.20
2019-01-22T02:20:18.754Z,109.50
2019-01-22T02:21:18.778Z,105.30
2019-01-22T02:22:18.799Z,106.40
2019-01-22T02:23:18.822Z,111.80
2019-01-22T02:24:18.842Z,113.00
2019-01-22T02:25:18.867Z,108.10
2019-01-22T02:26:18.888Z,106.10
2019-01-22T02:27:18.909Z,110.60
2019-01-22T02:28:18.931Z,111.20
2019-01-22T02:29:18.954Z,102.00
2019-01-22T02:30:18.976Z,112.20
2019-01-22T02:31:18.999Z,109.50
2019-01-22T02:32:19.022Z,112.80
2019-01-22T02:33:19.043Z,108.50
2019-01-22T02:34:19.066Z,114.40
2019-01-22T02:35:19.087Z,114.60
2019-01-22T02:36:19.109Z,110.10
2019-01-22T02:37:19.131Z,119.20
2019-01-22T02:38:19.155Z,114.50
2019-01-22T02:39:19.177Z,115.70
2019-01-22T02:40:19.201Z,105.40
2019-01-22T02:41:19.221Z,110.20
2019-01-22T02:42:19.244Z,111.10
2019-01-22T02:43:19.265Z,107.80
2019-01-22T02:44:19.288Z,110.70
2019-01-22T02:45:19.312Z,108.20
2019-01-22T02:46:19.333Z,117.90
2019-01-22T02:47:19.355Z,115.50
2019-01-22T02:48:19.380Z,102.20
2019-01-22T02:49:19.400Z,108.30
2019-01-22T02:50:19.423Z,114.00
2019-01-22T02:51:19.443Z,111.70
2019-01-22T02:52:19.466Z,109.60
2019-01-22T02:53:19.491Z,113.50
2019-01-22T02:54:19.515Z,114.20
2019-01-22T02:55:19.534Z,111.20
2019-01-22T02:56:19.557Z,108.90
2019-01-22T02:57:19.578Z,108.20
2019-01-22T02:58:19.600Z,110.20
2019-01-22T02:59:19.623Z,110.70
2019-01-22T03:00:19.645Z,110.20
2019-01-22T03:01:19.668Z,106.10
2019-01-22T03:02:19.691Z,106.10
2019-01-22T03:03:19.712Z,108.30
2019-01-22T03:04:19.734Z,117.00
2019-01-22T03:05:19.758Z,122.30
2019-01-22T03:06:32.516Z,119.30
2019-01-22T03:07:19.804Z,122.90
2019-01-22T03:08:19.825Z,128.30
2019-01-22T03:09:19.846Z,122.70
2019-01-22T03:10:19.869Z,113.30
2019-01-22T03:11:19.893Z,118.50
2019-01-22T03:12:19.914Z,106.80
2019-01-22T03:13:19.939Z,114.70
2019-01-22T03:14:19.959Z,119.40
2019-01-22T03:15:19.981Z,115.60
2019-01-22T03:16:20.004Z,117.00
2019-01-22T03:17:20.028Z,114.00
2019-01-22T03:18:20.049Z,124.50
2019-01-22T03:19:20.071Z,121.00
2019-01-22T03:20:20.102Z,119.80
2019-01-22T03:21:20.116Z,120.50
2019-01-22T03:22:20.139Z,110.90
2019-01-22T03:23:20.163Z,108.90
2019-01-22T03:24:20.183Z,105.90
2019-01-22T03:25:20.206Z,112.90
2019-01-22T03:26:20.229Z,106.00
2019-01-22T03:27:20.254Z,110.50
2019-01-22T03:28:20.274Z,102.80
2019-01-22T03:29:20.299Z,104.70
2019-01-22T03:30:20.321Z,109.80
2019-01-22T03:31:20.343Z,107.20
2019-01-22T03:32:20.367Z,95.20
2019-01-22T03:33:20.414Z,103.70
2019-01-22T03:34:20.410Z,100.70
2019-01-22T03:35:20.432Z,98.10
2019-01-22T03:36:20.455Z,99.90
2019-01-22T03:37:20.477Z,105.60
2019-01-22T03:38:20.502Z,100.80
2019-01-22T03:39:20.524Z,105.80
2019-01-22T03:40:20.544Z,102.00
2019-01-22T03:41:20.567Z,105.10
2019-01-22T03:42:20.591Z,104.50
2019-01-22T03:43:20.612Z,99.20
2019-01-22T03:44:20.636Z,95.20
2019-01-22T03:45:20.657Z,102.60
2019-01-22T03:46:20.681Z,95.80
2019-01-22T03:47:20.703Z,94.70
2019-01-22T03:48:20.725Z,93.00
2019-01-22T03:49:20.751Z,97.30
2019-01-22T03:50:20.771Z,96.60
2019-01-22T03:51:20.792Z,98.20
2019-01-22T03:52:20.817Z,106.20
2019-01-22T03:53:20.839Z,97.60
2019-01-22T03:54:20.863Z,96.00
2019-01-22T03:55:20.886Z,98.20
2019-01-22T03:56:20.905Z,94.00
2019-01-22T03:57:20.930Z,94.70
2019-01-22T03:58:20.952Z,93.90
2019-01-22T03:59:20.972Z,98.80
2019-01-22T04:00:20.996Z,99.00
2019-01-22T04:01:21.021Z,106.20
2019-01-22T04:02:21.042Z,102.60
2019-01-22T04:03:21.066Z,102.10
2019-01-22T04:04:21.088Z,97.00
2019-01-22T04:05:21.110Z,105.90
2019-01-22T04:06:21.151Z,98.60
2019-01-22T04:07:21.154Z,106.30
2019-01-22T04:08:21.176Z,103.60
2019-01-22T04:09:21.202Z,101.90
2019-01-22T04:10:21.223Z,100.70
2019-01-22T04:11:21.244Z,98.30
2019-01-22T04:12:21.269Z,111.30
2019-01-22T04:13:21.291Z,115.60
2019-01-22T04:14:21.313Z,114.40
2019-01-22T04:15:21.335Z,112.70
2019-01-22T04:16:21.358Z,110.50
2019-01-22T04:17:21.381Z,102.10
2019-01-22T04:18:21.407Z,104.90
2019-01-22T04:19:21.436Z,103.70
2019-01-22T04:20:21.448Z,110.80
2019-01-22T04:21:21.470Z,105.40
2019-01-22T04:22:21.496Z,103.20
2019-01-22T04:23:21.515Z,107.80
2019-01-22T04:24:21.538Z,109.00
2019-01-22T04:25:21.561Z,105.60
2019-01-22T04:26:21.584Z,108.50
2019-01-22T04:27:21.605Z,106.30
2019-01-22T04:28:21.628Z,103.20
2019-01-22T04:29:21.659Z,111.60
2019-01-22T04:30:21.673Z,108.50
2019-01-22T04:31:21.698Z,94.00
2019-01-22T04:32:21.718Z,105.00
2019-01-22T04:33:21.743Z,100.30
2019-01-22T04:34:21.765Z,94.80
2019-01-22T04:35:21.808Z,100.80
2019-01-22T04:36:21.813Z,98.50
2019-01-22T04:37:21.832Z,96.90
2019-01-22T04:38:21.854Z,102.90
2019-01-22T04:39:21.876Z,104.60
2019-01-22T04:40:21.906Z,101.10
2019-01-22T04:41:21.923Z,104.20
2019-01-22T04:42:21.945Z,97.80
2019-01-22T04:43:21.967Z,100.70
2019-01-22T04:44:21.990Z,98.50
2019-01-22T04:45:22.015Z,102.30
2019-01-22T04:46:22.037Z,103.80
2019-01-22T04:47:22.059Z,99.60
2019-01-22T04:48:22.082Z,93.10
2019-01-22T04:49:22.105Z,102.90
2019-01-22T04:50:22.125Z,106.90
2019-01-22T04:51:22.148Z,105.20
2019-01-22T04:52:22.171Z,107.10
2019-01-22T04:53:22.196Z,109.80
2019-01-22T04:54:22.218Z,101.30
2019-01-22T04:55:22.239Z,114.50
2019-01-22T04:56:22.261Z,108.80
2019-01-22T04:57:22.285Z,109.00
2019-01-22T04:58:22.307Z,107.40
2019-01-22T04:59:22.329Z,111.70
2019-01-22T05:00:22.356Z,105.60
2019-01-22T05:01:22.375Z,103.40
2019-01-22T05:02:22.406Z,113.00
2019-01-22T05:03:22.420Z,119.30
2019-01-22T05:04:22.444Z,114.40
2019-01-22T05:05:22.467Z,121.10
2019-01-22T05:06:22.490Z,112.70
2019-01-22T05:07:22.513Z,118.40
2019-01-22T05:08:22.535Z,118.40
2019-01-22T05:09:22.557Z,112.10
2019-01-22T05:10:22.581Z,114.70
2019-01-22T05:11:22.602Z,112.10
2019-01-22T05:12:22.627Z,118.20
2019-01-22T05:13:22.649Z,110.10
2019-01-22T05:14:22.671Z,109.90
2019-01-22T05:15:22.696Z,113.50
2019-01-22T05:16:22.719Z,109.10
2019-01-22T05:17:22.742Z,107.90
2019-01-22T05:18:22.763Z,111.50
2019-01-22T05:19:22.784Z,106.40
2019-01-22T05:20:22.808Z,100.90
2019-01-22T05:21:22.843Z,109.10
2019-01-22T05:22:22.855Z,104.70
2019-01-22T05:23:22.876Z,105.90
2019-01-22T05:24:22.899Z,104.90
2019-01-22T05:25:22.923Z,105.40
2019-01-22T05:26:22.946Z,114.60
2019-01-22T05:27:22.970Z,102.40
2019-01-22T05:28:22.993Z,104.10
2019-01-22T05:29:23.011Z,105.90
2019-01-22T05:30:23.036Z,114.30
2019-01-22T05:31:23.058Z,109.30
2019-01-22T05:32:23.082Z,103.40
2019-01-22T05:33:24.037Z,106.10
2019-01-22T05:34:23.127Z,108.10
2019-01-22T05:35:23.149Z,105.00
2019-01-22T05:36:23.173Z,112.20
2019-01-22T05:37:23.199Z,104.80
2019-01-22T05:38:23.217Z,106.00
2019-01-22T05:39:23.240Z,103.60
2019-01-22T05:40:23.264Z,107.10
2019-01-22T05:41:23.286Z,95.30
2019-01-22T05:42:23.308Z,106.00
2019-01-22T05:43:23.331Z,105.40
2019-01-22T05:44:23.357Z,113.20
2019-01-22T05:45:23.381Z,105.90
2019-01-22T05:46:23.411Z,105.30
2019-01-22T05:47:23.421Z,102.60
2019-01-22T05:48:23.444Z,101.20
2019-01-22T05:49:23.469Z,106.50
2019-01-22T05:50:23.490Z,105.40
2019-01-22T05:51:23.513Z,98.50
2019-01-22T05:52:23.536Z,105.00
2019-01-22T05:53:23.558Z,98.90
2019-01-22T05:54:25.349Z,100.40
2019-01-22T05:55:23.604Z,104.70
2019-01-22T05:56:23.627Z,105.20
2019-01-22T05:57:23.648Z,100.10
2019-01-22T05:58:23.672Z,107.10
2019-01-22T05:59:23.694Z,102.20
2019-01-22T06:00:23.719Z,108.50
2019-01-22T06:01:23.738Z,100.10
2019-01-22T06:02:23.762Z,118.80
2019-01-22T06:03:23.784Z,104.60
2019-01-22T06:04:23.808Z,104.20
2019-01-22T06:05:23.832Z,103.80
2019-01-22T06:06:23.854Z,106.20
2019-01-22T06:07:23.883Z,104.50
2019-01-22T06:08:23.904Z,103.40
2019-01-22T06:09:23.924Z,106.40
2019-01-22T06:10:23.944Z,106.00
2019-01-22T06:11:23.974Z,104.70
2019-01-22T06:12:23.989Z,103.60
2019-01-22T06:13:24.012Z,102.20
2019-01-22T06:14:24.036Z,102.20
2019-01-22T06:15:24.058Z,102.00
2019-01-22T06:16:24.082Z,98.60
2019-01-22T06:17:24.105Z,98.70
2019-01-22T06:18:24.132Z,96.80
2019-01-22T06:19:24.150Z,106.20
2019-01-22T06:20:24.173Z,104.50
2019-01-22T06:21:24.198Z,109.60
2019-01-22T06:22:24.227Z,111.80
2019-01-22T06:23:24.243Z,106.50
2019-01-22T06:24:24.265Z,108.10
2019-01-22T06:25:24.293Z,105.30
2019-01-22T06:26:24.310Z,101.40
2019-01-22T06:27:24.505Z,99.70
2019-01-22T06:28:24.355Z,103.10
2019-01-22T06:29:24.378Z,96.80
2019-01-22T06:30:24.444Z,98.70
2019-01-22T06:31:24.424Z,97.00
2019-01-22T06:32:24.448Z,101.80
2019-01-22T06:33:24.471Z,99.20
2019-01-22T06:34:24.494Z,95.80
2019-01-22T06:35:24.517Z,103.00
2019-01-22T06:36:24.539Z,99.30
2019-01-22T06:37:24.574Z,96.00
2019-01-22T06:38:24.588Z,101.70
2019-01-22T06:39:24.610Z,100.90
2019-01-22T06:40:24.631Z,95.90
2019-01-22T06:41:24.656Z,98.30
2019-01-22T06:42:24.676Z,99.40
2019-01-22T06:43:24.701Z,103.80
2019-01-22T06:44:24.724Z,103.00
2019-01-22T06:45:24.748Z,101.20
2019-01-22T06:46:24.771Z,105.00
2019-01-22T06:47:24.795Z,101.10
2019-01-22T06:48:24.816Z,97.20
2019-01-22T06:49:24.839Z,100.00
2019-01-22T06:50:24.866Z,95.20
2019-01-22T06:51:24.883Z,94.20
2019-01-22T06:52:24.907Z,96.50
2019-01-22T06:53:24.931Z,96.40
2019-01-22T06:54:24.962Z,96.40
2019-01-22T06:55:24.976Z,95.80
2019-01-22T06:56:24.999Z,93.40
2019-01-22T06:57:25.022Z,91.50
2019-01-22T06:58:25.047Z,92.80
2019-01-22T06:59:25.067Z,104.60
2019-01-22T07:00:25.090Z,86.10
2019-01-22T07:01:25.163Z,86.50
2019-01-22T07:02:25.137Z,93.30
2019-01-22T07:03:25.160Z,90.90
2019-01-22T07:04:25.192Z,92.40
2019-01-22T07:05:25.207Z,95.40
2019-01-22T07:06:25.229Z,93.70
2019-01-22T07:07:25.251Z,97.10
2019-01-22T07:08:25.275Z,96.00
2019-01-22T07:09:25.322Z,92.70
2019-01-22T07:10:25.322Z,95.20
2019-01-22T07:11:25.344Z,94.30
2019-01-22T07:12:25.373Z,95.00
2019-01-22T07:13:25.394Z,105.00
2019-01-22T07:14:25.416Z,104.20
2019-01-22T07:15:25.449Z,96.10
2019-01-22T07:16:25.460Z,93.20
2019-01-22T07:17:25.481Z,87.50
2019-01-22T07:18:25.505Z,81.20
2019-01-22T07:19:25.527Z,84.50
2019-01-22T07:20:25.550Z,95.70
2019-01-22T07:21:26.586Z,92.20
2019-01-22T07:22:25.598Z,96.50
2019-01-22T07:23:25.620Z,84.20
2019-01-22T07:24:25.642Z,83.90
2019-01-22T07:25:25.665Z,84.00
2019-01-22T07:26:25.690Z,86.10
2019-01-22T07:27:25.712Z,86.40
2019-01-22T07:28:25.736Z,83.30
2019-01-22T07:29:25.758Z,86.10
2019-01-22T07:30:25.781Z,88.40
2019-01-22T07:31:25.805Z,90.10
2019-01-22T07:32:25.827Z,88.80
2019-01-22T07:33:25.852Z,91.50
2019-01-22T07:34:25.874Z,88.80
2019-01-22T07:35:25.898Z,82.50
2019-01-22T07:36:25.920Z,86.40
2019-01-22T07:37:25.943Z,88.20
2019-01-22T07:38:25.967Z,87.20
2019-01-22T07:39:25.989Z,87.50
2019-01-22T07:40:26.012Z,81.10
2019-01-22T07:41:26.038Z,83.70
2019-01-22T07:42:26.059Z,86.30
2019-01-22T07:43:26.082Z,76.70
2019-01-22T07:44:26.105Z,82.30
2019-01-22T07:45:26.130Z,81.90
2019-01-22T07:46:26.153Z,71.10
2019-01-22T07:47:26.174Z,77.50
2019-01-22T07:48:26.198Z,75.30
2019-01-22T07:49:26.222Z,71.80
2019-01-22T07:50:26.246Z,85.00
2019-01-22T07:51:26.268Z,74.60
2019-01-22T07:52:26.291Z,76.50
2019-01-22T07:53:26.315Z,75.20
2019-01-22T07:54:26.341Z,72.00
2019-01-22T07:55:26.364Z,72.70
2019-01-22T07:56:26.385Z,70.70
2019-01-22T07:57:26.408Z,74.40
2019-01-22T07:58:26.436Z,73.70
2019-01-22T07:59:26.455Z,68.90
2019-01-22T08:00:26.479Z,77.70
2019-01-22T08:01:26.501Z,71.20
2019-01-22T08:02:26.525Z,73.10
2019-01-22T08:03:26.547Z,77.00
2019-01-22T08:04:26.573Z,76.60
2019-01-22T08:05:26.594Z,81.40
2019-01-22T08:06:26.619Z,81.20
2019-01-22T08:07:26.641Z,78.30
2019-01-22T08:08:26.665Z,78.70
2019-01-22T08:09:26.688Z,83.50
2019-01-22T08:10:26.712Z,77.60
2019-01-22T08:11:26.735Z,83.20
2019-01-22T08:12:26.764Z,74.80
2019-01-22T08:13:26.787Z,88.00
2019-01-22T08:14:26.807Z,83.50
2019-01-22T08:15:26.830Z,79.80
2019-01-22T08:16:26.853Z,82.00
2019-01-22T08:17:26.881Z,83.70
2019-01-22T08:18:26.903Z,88.10
2019-01-22T08:19:26.923Z,80.50
2019-01-22T08:20:26.951Z,83.10
2019-01-22T08:21:26.969Z,75.10
2019-01-22T08:22:26.996Z,80.10
2019-01-22T08:23:27.016Z,83.30
2019-01-22T08:24:27.039Z,81.30
2019-01-22T08:25:27.063Z,84.20
2019-01-22T08:26:27.090Z,83.50
2019-01-22T08:27:29.672Z,78.60
2019-01-22T08:28:27.135Z,83.10
2019-01-22T08:29:27.157Z,79.80
2019-01-22T08:30:27.182Z,77.70
2019-01-22T08:31:27.204Z,79.60
2019-01-22T08:32:27.231Z,87.70
2019-01-22T08:33:27.255Z,83.90
2019-01-22T08:34:27.275Z,86.70
2019-01-22T08:35:27.300Z,82.50
2019-01-22T08:36:27.321Z,85.10
2019-01-22T08:37:27.346Z,78.30
2019-01-22T08:38:27.371Z,78.80
2019-01-22T08:39:27.399Z,80.40
2019-01-22T08:40:27.416Z,81.40
2019-01-22T08:41:27.440Z,75.90
2019-01-22T08:42:27.464Z,77.60
2019-01-22T08:43:27.488Z,75.60
2019-01-22T08:44:28.089Z,80.50
2019-01-22T08:45:27.533Z,77.80
2019-01-22T08:46:27.558Z,68.90
2019-01-22T08:47:27.581Z,80.20
2019-01-22T08:48:27.756Z,74.60
2019-01-22T08:49:27.632Z,72.10
2019-01-22T08:50:27.652Z,79.20
2019-01-22T08:51:27.677Z,75.90
2019-01-22T08:52:27.700Z,77.80
2019-01-22T08:53:27.730Z,72.60
2019-01-22T08:54:27.745Z,77.00
2019-01-22T08:55:27.769Z,69.90
2019-01-22T08:56:27.793Z,72.10
2019-01-22T08:57:27.817Z,68.60
2019-01-22T08:58:27.842Z,71.50
2019-01-22T08:59:27.864Z,66.40
2019-01-22T09:00:28.035Z,67.00
2019-01-22T09:01:27.913Z,67.30
2019-01-22T09:02:27.937Z,74.70
2019-01-22T09:03:27.960Z,72.70
2019-01-22T09:04:27.981Z,67.90
2019-01-22T09:05:28.006Z,69.90
2019-01-22T09:06:28.030Z,68.90
2019-01-22T09:07:28.054Z,66.20
2019-01-22T09:08:28.077Z,68.80
2019-01-22T09:09:28.101Z,72.70
2019-01-22T09:10:28.126Z,68.80
2019-01-22T09:11:28.148Z,61.60
2019-01-22T09:12:28.174Z,61.50
2019-01-22T09:13:28.197Z,66.70
2019-01-22T09:14:28.222Z,66.00
2019-01-22T09:15:28.245Z,65.00
2019-01-22T09:16:28.268Z,64.10
2019-01-22T09:17:28.293Z,65.80
2019-01-22T09:18:28.321Z,74.30
2019-01-22T09:19:28.343Z,68.30
2019-01-22T09:20:28.408Z,65.50
2019-01-22T09:21:28.389Z,67.20
2019-01-22T09:22:28.413Z,70.20
2019-01-22T09:23:28.436Z,70.00
2019-01-22T09:24:28.461Z,71.30
2019-01-22T09:25:28.486Z,67.70
2019-01-22T09:26:28.523Z,68.20
2019-01-22T09:27:28.531Z,69.40
2019-01-22T09:28:28.557Z,65.90
2019-01-22T09:29:28.582Z,69.10
2019-01-22T09:30:28.606Z,69.60
2019-01-22T09:31:28.626Z,68.90
2019-01-22T09:32:28.652Z,71.80
2019-01-22T09:33:28.675Z,74.20
2019-01-22T09:34:28.700Z,72.90
2019-01-22T09:35:28.724Z,69.40
2019-01-22T09:36:28.747Z,73.60
2019-01-22T09:37:28.772Z,67.30
2019-01-22T09:38:28.795Z,69.80
2019-01-22T09:39:28.819Z,73.60
2019-01-22T09:40:28.843Z,69.00
2019-01-22T09:41:28.868Z,70.50
2019-01-22T09:42:28.893Z,74.50
2019-01-22T09:43:28.915Z,72.70
2019-01-22T09:44:28.938Z,69.90
2019-01-22T09:45:28.963Z,75.40
2019-01-22T09:46:28.988Z,72.70
2019-01-22T09:47:29.012Z,69.40
2019-01-22T09:48:29.042Z,71.70
2019-01-22T09:49:29.060Z,72.10
2019-01-22T09:50:29.086Z,70.80
2019-01-22T09:51:29.117Z,66.90
2019-01-22T09:52:29.133Z,70.10
2019-01-22T09:53:29.166Z,65.50
2019-01-22T09:54:29.182Z,68.60
2019-01-22T09:55:30.451Z,70.70
2019-01-22T09:56:29.229Z,67.70
2019-01-22T09:57:29.253Z,71.10
2019-01-22T09:58:29.293Z,69.70
2019-01-22T09:59:29.301Z,71.00
2019-01-22T10:00:30.313Z,67.10
2019-01-22T10:01:29.350Z,66.10
2019-01-22T10:02:29.373Z,65.10
2019-01-22T10:03:29.398Z,66.00
2019-01-22T10:04:29.423Z,64.70
2019-01-22T10:05:29.447Z,64.20
2019-01-22T10:06:29.472Z,66.70
2019-01-22T10:07:29.497Z,61.70
2019-01-22T10:08:29.519Z,63.50
2019-01-22T10:09:29.577Z,68.10
2019-01-22T10:10:29.570Z,64.20
2019-01-22T10:11:29.593Z,61.40
2019-01-22T10:12:29.616Z,68.00
2019-01-22T10:13:29.640Z,67.30
2019-01-22T10:14:29.682Z,74.80
2019-01-22T10:15:29.688Z,84.80
2019-01-22T10:16:29.714Z,81.40
2019-01-22T10:17:29.737Z,75.00
2019-01-22T10:18:29.765Z,74.70
2019-01-22T10:19:29.785Z,72.70
2019-01-22T10:20:29.810Z,75.10
2019-01-22T10:21:29.834Z,71.50
2019-01-22T10:22:29.859Z,73.60
2019-01-22T10:23:29.885Z,61.50
2019-01-22T10:24:29.906Z,68.50
2019-01-22T10:25:29.932Z,71.30
2019-01-22T10:26:29.956Z,65.30
2019-01-22T10:27:29.980Z,61.10
2019-01-22T10:28:30.006Z,60.30
2019-01-22T10:29:30.030Z,60.70
2019-01-22T10:30:30.055Z,59.30
2019-01-22T10:31:30.077Z,72.10
2019-01-22T10:32:30.101Z,71.50
2019-01-22T10:33:30.128Z,68.50
2019-01-22T10:34:30.154Z,76.00
2019-01-22T10:35:30.178Z,77.30
2019-01-22T10:36:30.228Z,64.00
2019-01-22T10:37:30.225Z,63.30
2019-01-22T10:38:30.250Z,57.50
2019-01-22T10:39:30.272Z,61.30
2019-01-22T10:40:30.298Z,68.10
2019-01-22T10:41:30.324Z,63.80
2019-01-22T10:42:30.351Z,56.60
2019-01-22T10:43:30.370Z,56.30
2019-01-22T10:44:30.397Z,58.50
2019-01-22T10:45:30.689Z,59.40
2019-01-22T10:46:30.444Z,60.40
2019-01-22T10:47:30.468Z,68.80
2019-01-22T10:48:30.495Z,66.00
2019-01-22T10:49:30.518Z,60.90
2019-01-22T10:50:30.558Z,71.60
2019-01-22T10:51:30.566Z,69.90
2019-01-22T10:52:30.646Z,69.80
2019-01-22T10:53:30.616Z,69.60
2019-01-22T10:54:30.642Z,69.00
2019-01-22T10:55:36.188Z,61.30
2019-01-22T10:56:30.688Z,65.10
2019-01-22T10:57:30.713Z,68.20
2019-01-22T10:58:30.737Z,67.70
2019-01-22T10:59:30.761Z,63.20
2019-01-22T11:00:30.786Z,63.70
2019-01-22T11:01:30.811Z,69.30
2019-01-22T11:02:30.837Z,65.00
2019-01-22T11:03:30.860Z,66.40
2019-01-22T11:04:30.883Z,69.70
2019-01-22T11:05:30.909Z,68.00
2019-01-22T11:06:30.937Z,62.20
2019-01-22T11:07:30.957Z,61.90
2019-01-22T11:08:30.982Z,60.90
2019-01-22T11:09:31.008Z,64.80
2019-01-22T11:10:31.033Z,58.60
2019-01-22T11:11:31.058Z,62.20
2019-01-22T11:12:31.081Z,58.60
2019-01-22T11:13:31.105Z,62.70
2019-01-22T11:14:31.132Z,65.40
2019-01-22T11:15:31.160Z,57.40
2019-01-22T11:16:31.186Z,56.30
2019-01-22T11:17:31.206Z,59.20
2019-01-22T11:18:31.231Z,64.30
2019-01-22T11:19:31.253Z,67.20
2019-01-22T11:20:31.279Z,66.60
2019-01-22T11:21:31.304Z,75.00
2019-01-22T11:22:31.329Z,70.10
2019-01-22T11:23:31.356Z,66.30
2019-01-22T11:24:31.379Z,67.80
2019-01-22T11:25:31.403Z,65.30
2019-01-22T11:26:31.428Z,62.80
2019-01-22T11:27:31.452Z,60.20
2019-01-22T11:28:31.479Z,70.10
2019-01-22T11:29:31.502Z,68.70
2019-01-22T11:30:31.529Z,69.40
2019-01-22T11:31:31.554Z,64.60
2019-01-22T11:32:31.577Z,65.40
2019-01-22T11:33:33.432Z,60.40
2019-01-22T11:34:31.628Z,57.00
2019-01-22T11:35:31.652Z,62.90
2019-01-22T11:36:31.677Z,61.30
2019-01-22T11:37:31.702Z,59.70
2019-01-22T11:38:31.728Z,62.30
2019-01-22T11:39:31.751Z,66.80
2019-01-22T11:40:31.776Z,61.30
2019-01-22T11:41:31.803Z,65.80
2019-01-22T11:42:31.828Z,64.30
2019-01-22T11:43:31.851Z,60.60
2019-01-22T11:44:31.876Z,66.70
2019-01-22T11:45:31.901Z,68.70
2019-01-22T11:46:31.927Z,65.00
2019-01-22T11:47:31.952Z,67.80
2019-01-22T11:48:31.976Z,60.20
2019-01-22T11:49:32.002Z,59.70
2019-01-22T11:50:32.027Z,63.80
2019-01-22T11:51:32.050Z,61.20
2019-01-22T11:52:32.075Z,66.50
2019-01-22T11:53:32.101Z,61.80
2019-01-22T11:54:32.128Z,62.00
2019-01-22T11:55:32.150Z,66.30
2019-01-22T11:56:32.175Z,63.90
2019-01-22T11:57:32.201Z,57.50
2019-01-22T11:58:32.229Z,65.40
2019-01-22T11:59:32.250Z,64.60
2019-01-22T12:00:32.277Z,62.60
2019-01-22T12:01:32.300Z,54.80
2019-01-22T12:02:32.362Z,59.80
2019-01-22T12:03:32.350Z,57.70
2019-01-22T12:04:32.374Z,55.60
2019-01-22T12:05:32.401Z,59.40
2019-01-22T12:06:32.425Z,57.90
2019-01-22T12:07:32.451Z,58.20
2019-01-22T12:08:32.474Z,58.10
2019-01-22T12:09:32.500Z,60.20
2019-01-22T12:10:32.525Z,54.50
2019-01-22T12:11:32.550Z,57.60
2019-01-22T12:12:32.574Z,58.50
2019-01-22T12:13:32.601Z,57.10
2019-01-22T12:14:32.626Z,62.50
2019-01-22T12:15:32.650Z,61.40
2019-01-22T12:16:32.675Z,64.50
2019-01-22T12:17:32.699Z,62.20
2019-01-22T12:18:32.739Z,63.10
2019-01-22T12:19:32.750Z,70.20
2019-01-22T12:20:32.777Z,66.00
2019-01-22T12:21:32.801Z,62.90
2019-01-22T12:22:32.827Z,52.80
2019-01-22T12:23:32.852Z,60.50
2019-01-22T12:24:32.877Z,63.50
2019-01-22T12:25:32.902Z,57.60
2019-01-22T12:26:32.926Z,61.50
2019-01-22T12:27:32.951Z,59.80
2019-01-22T12:28:32.977Z,53.40
2019-01-22T12:29:33.003Z,53.90
2019-01-22T12:30:33.030Z,56.00
2019-01-22T12:31:33.051Z,54.40
2019-01-22T12:32:33.078Z,53.60
2019-01-22T12:33:33.108Z,56.00
2019-01-22T12:34:33.130Z,54.90
2019-01-22T12:35:33.154Z,55.10
2019-01-22T12:36:33.178Z,48.40
2019-01-22T12:37:33.204Z,53.50
2019-01-22T12:38:33.230Z,55.40
2019-01-22T12:39:33.253Z,58.40
2019-01-22T12:40:33.281Z,58.80